createdAt,value
2018-03-03T00:00:07.599Z,80.97
2018-03-03T00:02:35.496Z,81.97
2018-03-03T00:05:03.425Z,80.23
2018-03-03T00:07:31.303Z,82.23
2018-03-03T00:09:59.219Z,81.90
2018-03-03T00:12:27.115Z,81.97
2018-03-03T00:14:54.890Z,78.73
2018-03-03T00:17:22.801Z,84.10
2018-03-03T00:19:50.710Z,79.83
2018-03-03T00:22:24.159Z,82.27
2018-03-03T00:24:52.068Z,80.17
2018-03-03T00:27:19.957Z,80.30
2018-03-03T00:29:47.844Z,79.20
2018-03-03T00:32:15.760Z,80.43
2018-03-03T00:34:43.648Z,78.63
2018-03-03T00:37:11.564Z,81.30
2018-03-03T00:39:39.455Z,82.80
2018-03-03T00:42:07.365Z,82.23
2018-03-03T00:44:35.243Z,81.90
2018-03-03T00:47:03.136Z,82.77
2018-03-03T00:49:31.047Z,84.93
2018-03-03T00:51:58.935Z,82.20
2018-03-03T00:54:26.841Z,83.67
2018-03-03T00:56:54.729Z,83.40
2018-03-03T00:59:22.641Z,80.27
2018-03-03T01:01:50.536Z,83.47
2018-03-03T01:04:18.428Z,84.13
2018-03-03T01:06:46.335Z,84.43
2018-03-03T01:09:14.228Z,82.83
2018-03-03T01:11:42.173Z,84.80
2018-03-03T01:14:10.049Z,82.60
2018-03-03T01:16:38.010Z,82.97
2018-03-03T01:19:05.887Z,83.37
2018-03-03T01:21:33.779Z,85.90
2018-03-03T01:24:01.684Z,85.23
2018-03-03T01:26:29.577Z,83.83
2018-03-03T01:28:57.503Z,83.27
2018-03-03T01:31:25.399Z,82.97
2018-03-03T01:33:53.316Z,84.23
2018-03-03T01:36:21.207Z,82.33
2018-03-03T01:38:49.103Z,83.07
2018-03-03T01:41:17.018Z,85.17
2018-03-03T01:43:44.910Z,84.50
2018-03-03T01:46:12.821Z,83.70
2018-03-03T01:48:40.721Z,81.60
2018-03-03T01:51:23.155Z,82.43
2018-03-03T01:53:51.060Z,83.70
2018-03-03T01:56:18.948Z,84.57
2018-03-03T01:58:46.843Z,82.73
2018-03-03T02:01:14.755Z,78.23
2018-03-03T02:03:42.639Z,80.83
2018-03-03T02:06:10.531Z,83.23
2018-03-03T02:08:38.443Z,86.80
2018-03-03T02:11:06.332Z,87.73
2018-03-03T02:13:34.304Z,86.43
2018-03-03T02:16:02.204Z,91.57
2018-03-03T02:18:30.099Z,90.50
2018-03-03T02:20:57.999Z,91.70
2018-03-03T02:23:25.906Z,88.53
2018-03-03T02:25:53.795Z,94.97
2018-03-03T02:28:21.687Z,96.80
2018-03-03T02:30:49.599Z,97.80
2018-03-03T02:33:17.306Z,96.63
2018-03-03T02:35:45.191Z,97.10
2018-03-03T02:38:13.100Z,97.47
2018-03-03T02:40:41.008Z,96.80
2018-03-03T02:43:08.909Z,93.93
2018-03-03T02:45:36.804Z,98.87
2018-03-03T02:48:04.696Z,96.87
2018-03-03T02:50:32.584Z,93.80
2018-03-03T02:53:00.587Z,94.90
2018-03-03T02:55:28.467Z,94.37
2018-03-03T02:57:56.356Z,95.40
2018-03-03T03:00:24.269Z,94.73
2018-03-03T03:02:52.163Z,93.50
2018-03-03T03:05:20.059Z,96.70
2018-03-03T03:07:47.978Z,95.63
2018-03-03T03:10:15.958Z,97.27
2018-03-03T03:12:43.882Z,98.60
2018-03-03T03:15:11.963Z,97.73
2018-03-03T03:17:39.525Z,98.63
2018-03-03T03:20:07.413Z,96.33
2018-03-03T03:22:35.331Z,100.37
2018-03-03T03:25:03.217Z,99.93
2018-03-03T03:27:31.125Z,97.67
2018-03-03T03:29:59.037Z,91.43
2018-03-03T03:32:26.961Z,95.07
2018-03-03T03:34:54.840Z,94.43
2018-03-03T03:37:22.747Z,93.53
2018-03-03T03:39:50.632Z,89.93
2018-03-03T03:42:18.532Z,96.57
2018-03-03T03:44:46.440Z,94.13
2018-03-03T03:47:14.334Z,92.80
2018-03-03T03:49:42.337Z,96.63
2018-03-03T03:52:10.231Z,93.07
2018-03-03T03:54:38.133Z,95.53
2018-03-03T03:57:06.022Z,96.57
2018-03-03T03:59:33.927Z,96.30
2018-03-03T04:02:01.811Z,95.70
2018-03-03T04:04:29.702Z,100.10
2018-03-03T04:06:57.640Z,97.17
2018-03-03T04:09:25.524Z,95.20
2018-03-03T04:11:53.411Z,94.17
2018-03-03T04:14:21.328Z,98.37
2018-03-03T04:16:49.218Z,95.83
2018-03-03T04:19:17.104Z,91.03
2018-03-03T04:21:45.012Z,95.27
2018-03-03T04:24:12.711Z,91.90
2018-03-03T04:26:40.427Z,90.43
2018-03-03T04:29:08.337Z,90.13
2018-03-03T04:31:36.032Z,87.07
2018-03-03T04:34:03.586Z,90.83
2018-03-03T04:36:31.500Z,86.73
2018-03-03T04:38:59.192Z,93.13
2018-03-03T04:41:27.089Z,94.93
2018-03-03T04:43:54.995Z,94.37
2018-03-03T04:46:22.711Z,98.33
2018-03-03T04:48:50.403Z,98.00
2018-03-03T04:51:18.124Z,95.63
2018-03-03T04:53:45.824Z,96.80
2018-03-03T04:56:13.523Z,95.53
2018-03-03T04:58:46.940Z,97.27
2018-03-03T05:01:14.635Z,91.03
2018-03-03T05:03:58.035Z,91.00
2018-03-03T05:06:32.349Z,88.27
2018-03-03T05:09:00.064Z,88.60
2018-03-03T05:11:27.760Z,90.60
2018-03-03T05:14:01.327Z,89.57
2018-03-03T05:16:44.729Z,87.70
2018-03-03T05:19:29.167Z,87.17
2018-03-03T05:22:02.601Z,89.37
2018-03-03T05:24:50.227Z,86.83
2018-03-03T05:27:23.758Z,85.33
2018-03-03T05:29:57.235Z,93.20
2018-03-03T05:32:30.836Z,91.27
2018-03-03T05:35:13.440Z,89.83
2018-03-03T05:37:46.927Z,90.10
2018-03-03T05:40:20.488Z,86.20
2018-03-03T05:42:54.032Z,83.27
2018-03-03T05:45:35.686Z,84.17
2018-03-03T05:48:09.375Z,89.27
2018-03-03T05:50:42.858Z,84.17
2018-03-03T05:53:16.432Z,86.03
2018-03-03T05:55:59.031Z,80.37
2018-03-03T05:58:32.511Z,81.33
2018-03-03T06:01:21.086Z,79.87
2018-03-03T06:03:54.523Z,76.87
2018-03-03T06:06:28.115Z,76.33
2018-03-03T06:08:56.508Z,83.70
2018-03-03T06:11:24.205Z,79.93
2018-03-03T06:13:51.932Z,84.40
2018-03-03T06:16:19.818Z,83.30
2018-03-03T06:18:47.528Z,82.13
2018-03-03T06:21:15.439Z,78.87
2018-03-03T06:23:43.322Z,73.53
2018-03-03T06:26:11.216Z,78.43
2018-03-03T06:28:39.129Z,77.87
2018-03-03T06:31:07.016Z,75.40
2018-03-03T06:33:34.904Z,78.97
2018-03-03T06:36:02.824Z,79.63
2018-03-03T06:38:30.712Z,79.83
2018-03-03T06:40:58.594Z,78.80
2018-03-03T06:43:26.495Z,78.67
2018-03-03T06:45:55.225Z,73.37
2018-03-03T06:48:23.126Z,71.53
2018-03-03T06:50:51.035Z,77.87
2018-03-03T06:53:18.916Z,81.17
2018-03-03T06:55:46.809Z,79.00
2018-03-03T06:58:14.713Z,84.27
2018-03-03T07:00:42.627Z,83.30
2018-03-03T07:03:10.719Z,82.53
2018-03-03T07:05:38.627Z,83.47
2018-03-03T07:08:06.355Z,83.87
2018-03-03T07:10:34.247Z,82.63
2018-03-03T07:13:01.959Z,78.87
2018-03-03T07:15:29.658Z,82.07
2018-03-03T07:17:57.551Z,82.20
2018-03-03T07:20:25.454Z,84.63
2018-03-03T07:22:53.357Z,81.17
2018-03-03T07:25:21.291Z,81.67
2018-03-03T07:27:49.183Z,80.20
2018-03-03T07:30:17.072Z,78.07
2018-03-03T07:32:44.968Z,76.87
2018-03-03T07:35:12.990Z,74.23
2018-03-03T07:37:40.871Z,68.73
2018-03-03T07:40:08.777Z,70.27
2018-03-03T07:42:36.664Z,67.57
2018-03-03T07:45:04.571Z,69.33
2018-03-03T07:47:32.463Z,67.17
2018-03-03T07:50:00.180Z,60.57
2018-03-03T07:52:28.071Z,63.83
2018-03-03T07:54:55.977Z,61.97
2018-03-03T07:57:23.894Z,61.37
2018-03-03T07:59:51.872Z,61.93
2018-03-03T08:02:19.764Z,62.37
2018-03-03T08:04:47.627Z,63.03
2018-03-03T08:07:15.344Z,66.87
2018-03-03T08:09:43.044Z,66.80
2018-03-03T08:12:10.939Z,63.60
2018-03-03T08:14:38.834Z,60.27
2018-03-03T08:17:06.543Z,60.17
2018-03-03T08:19:34.441Z,56.10
2018-03-03T08:22:02.330Z,56.67
2018-03-03T08:24:30.262Z,58.93
2018-03-03T08:26:58.163Z,57.97
2018-03-03T08:29:26.036Z,55.67
2018-03-03T08:31:53.945Z,56.40
2018-03-03T08:34:21.835Z,59.40
2018-03-03T08:36:49.739Z,57.63
2018-03-03T08:39:17.675Z,58.57
2018-03-03T08:41:45.674Z,59.53
2018-03-03T08:44:13.642Z,60.23
2018-03-03T08:46:41.529Z,62.37
2018-03-03T08:49:09.486Z,64.03
2018-03-03T08:51:37.396Z,61.10
2018-03-03T08:54:05.303Z,60.70
2018-03-03T08:56:33.189Z,60.00
2018-03-03T08:59:01.096Z,61.93
2018-03-03T09:01:28.979Z,66.07
2018-03-03T09:03:56.895Z,67.53
2018-03-03T09:06:24.867Z,66.93
2018-03-03T09:08:52.802Z,67.17
2018-03-03T09:11:20.711Z,67.10
2018-03-03T09:13:48.601Z,71.13
2018-03-03T09:16:16.507Z,72.50
2018-03-03T09:18:44.207Z,70.57
2018-03-03T09:21:12.127Z,72.23
2018-03-03T09:23:40.017Z,72.13
2018-03-03T09:26:07.923Z,73.47
2018-03-03T09:28:35.851Z,74.77
2018-03-03T09:31:03.925Z,75.37
2018-03-03T09:33:31.817Z,73.47
2018-03-03T09:35:59.724Z,74.50
2018-03-03T09:38:27.615Z,75.93
2018-03-03T09:40:55.359Z,74.60
2018-03-03T09:43:23.251Z,72.37
2018-03-03T09:45:51.148Z,75.20
2018-03-03T09:48:19.042Z,73.83
2018-03-03T09:50:46.931Z,74.90
2018-03-03T09:53:14.841Z,74.37
2018-03-03T09:55:42.724Z,73.27
2018-03-03T09:58:10.627Z,71.33
2018-03-03T10:00:38.336Z,71.20
2018-03-03T10:03:06.049Z,65.70
2018-03-03T10:05:33.932Z,69.07
2018-03-03T10:08:01.839Z,70.07
2018-03-03T10:10:29.723Z,69.80
2018-03-03T10:12:57.611Z,67.80
2018-03-03T10:15:25.516Z,70.73
2018-03-03T10:17:53.402Z,71.30
2018-03-03T10:20:21.308Z,71.43
2018-03-03T10:22:49.201Z,71.40
2018-03-03T10:25:17.127Z,74.83
2018-03-03T10:27:45.017Z,73.87
2018-03-03T10:30:12.919Z,69.77
2018-03-03T10:32:40.815Z,70.23
2018-03-03T10:35:08.715Z,74.13
2018-03-03T10:37:36.603Z,72.20
2018-03-03T10:40:04.383Z,75.63
2018-03-03T10:42:32.276Z,75.57
2018-03-03T10:45:00.276Z,76.50
2018-03-03T10:47:28.163Z,77.60
2018-03-03T10:49:56.071Z,75.83
2018-03-03T10:52:23.968Z,76.80
2018-03-03T10:54:51.876Z,75.20
2018-03-03T10:57:19.771Z,75.17
2018-03-03T10:59:47.671Z,75.40
2018-03-03T11:02:15.561Z,72.93
2018-03-03T11:04:43.450Z,72.00
2018-03-03T11:07:11.365Z,71.70
2018-03-03T11:09:39.242Z,73.17
2018-03-03T11:12:07.214Z,72.87
2018-03-03T11:14:35.096Z,71.80
2018-03-03T11:17:03.030Z,70.43
2018-03-03T11:19:31.165Z,72.87
2018-03-03T11:21:59.072Z,69.10
2018-03-03T11:24:26.958Z,70.90
2018-03-03T11:26:54.866Z,70.37
2018-03-03T11:29:22.832Z,71.80
2018-03-03T11:31:50.969Z,68.30
2018-03-03T11:34:18.937Z,68.80
2018-03-03T11:36:46.852Z,65.87
2018-03-03T11:39:14.764Z,67.03
2018-03-03T11:41:42.659Z,64.20
2018-03-03T11:44:10.542Z,66.27
2018-03-03T11:46:38.784Z,65.90
2018-03-03T11:49:06.718Z,64.07
2018-03-03T11:51:34.628Z,63.53
2018-03-03T11:54:02.508Z,62.30
2018-03-03T11:56:30.413Z,63.70
2018-03-03T11:58:58.304Z,62.27
2018-03-03T12:01:26.195Z,63.13
2018-03-03T12:03:54.084Z,65.47
2018-03-03T12:06:21.992Z,67.87
2018-03-03T12:08:49.886Z,68.17
2018-03-03T12:11:17.779Z,64.00
2018-03-03T12:13:45.675Z,65.87
2018-03-03T12:16:13.578Z,66.10
2018-03-03T12:18:41.468Z,65.33
2018-03-03T12:21:09.399Z,65.63
2018-03-03T12:23:37.268Z,66.57
2018-03-03T12:26:05.168Z,64.40
2018-03-03T12:28:33.048Z,65.80
2018-03-03T12:31:00.946Z,66.90
2018-03-03T12:33:28.828Z,63.53
2018-03-03T12:35:56.532Z,64.50
2018-03-03T12:38:24.412Z,67.83
2018-03-03T12:40:52.311Z,68.27
2018-03-03T12:43:20.207Z,68.77
2018-03-03T12:45:48.098Z,67.97
2018-03-03T12:48:16.015Z,67.27
2018-03-03T12:50:43.751Z,65.00
2018-03-03T12:53:11.641Z,65.67
2018-03-03T12:55:39.538Z,64.23
2018-03-03T12:58:07.420Z,66.20
2018-03-03T13:00:35.316Z,61.03
2018-03-03T13:03:03.211Z,61.80
2018-03-03T13:05:31.116Z,61.97
2018-03-03T13:07:58.992Z,61.33
2018-03-03T13:10:26.887Z,62.37
2018-03-03T13:12:54.775Z,57.10
2018-03-03T13:15:22.688Z,58.60
2018-03-03T13:17:50.568Z,58.03
2018-03-03T13:20:18.475Z,58.47
2018-03-03T13:22:46.366Z,57.00
2018-03-03T13:25:14.283Z,57.97
2018-03-03T13:27:42.174Z,55.80
2018-03-03T13:30:10.077Z,55.23
2018-03-03T13:32:37.967Z,55.30
2018-03-03T13:35:05.881Z,55.97
2018-03-03T13:37:33.765Z,55.87
2018-03-03T13:40:01.674Z,55.80
2018-03-03T13:42:29.547Z,55.23
2018-03-03T13:44:57.452Z,55.33
2018-03-03T13:47:25.332Z,53.70
2018-03-03T13:49:53.044Z,51.40
2018-03-03T13:52:20.986Z,54.37
2018-03-03T13:54:48.866Z,53.73
2018-03-03T13:57:16.742Z,52.43
2018-03-03T13:59:44.619Z,53.03
2018-03-03T14:02:12.540Z,50.17
2018-03-03T14:04:40.421Z,50.60
2018-03-03T14:07:08.424Z,50.53
2018-03-03T14:09:36.294Z,48.30
2018-03-03T14:12:04.192Z,50.47
2018-03-03T14:14:32.090Z,51.17
2018-03-03T14:16:59.995Z,51.00
2018-03-03T14:19:27.887Z,51.00
2018-03-03T14:21:55.781Z,50.40
2018-03-03T14:24:23.691Z,47.63
2018-03-03T14:26:52.040Z,49.47
2018-03-03T14:29:19.923Z,50.23
2018-03-03T14:31:47.820Z,48.47
2018-03-03T14:34:15.703Z,48.90
2018-03-03T14:36:43.684Z,48.80
2018-03-03T14:39:11.561Z,49.63
2018-03-03T14:41:39.957Z,52.33
2018-03-03T14:44:07.894Z,53.00
2018-03-03T14:46:35.784Z,52.47
2018-03-03T14:49:03.671Z,52.67
2018-03-03T14:51:31.551Z,52.13
2018-03-03T14:53:59.452Z,51.70
2018-03-03T14:56:27.330Z,52.33
2018-03-03T14:58:55.203Z,50.83
2018-03-03T15:01:23.116Z,52.17
2018-03-03T15:03:50.996Z,54.57
2018-03-03T15:06:18.886Z,51.90
2018-03-03T15:08:46.770Z,51.10
2018-03-03T15:11:14.767Z,53.67
2018-03-03T15:13:42.646Z,51.20
2018-03-03T15:16:10.547Z,50.63
2018-03-03T15:18:38.423Z,49.00
2018-03-03T15:21:06.304Z,47.97
2018-03-03T15:23:34.195Z,47.47
2018-03-03T15:26:02.071Z,49.10
2018-03-03T15:28:29.966Z,49.53
2018-03-03T15:30:57.853Z,49.00
2018-03-03T15:33:25.752Z,47.30
2018-03-03T15:35:53.638Z,46.97
2018-03-03T15:38:21.536Z,48.60
2018-03-03T15:40:49.478Z,47.83
2018-03-03T15:43:17.351Z,48.87
2018-03-03T15:45:45.223Z,45.60
2018-03-03T15:48:13.180Z,47.80
2018-03-03T15:50:41.150Z,48.70
2018-03-03T15:53:09.191Z,46.60
2018-03-03T15:55:36.879Z,49.10
2018-03-03T15:58:04.758Z,50.00
2018-03-03T16:00:32.658Z,48.60
2018-03-03T16:03:00.547Z,48.30
2018-03-03T16:05:28.446Z,48.07
2018-03-03T16:07:56.322Z,49.27
2018-03-03T16:10:24.289Z,48.97
2018-03-03T16:12:52.152Z,47.93
2018-03-03T16:15:20.076Z,49.27
2018-03-03T16:17:47.762Z,50.57
2018-03-03T16:20:15.647Z,50.77
2018-03-03T16:22:43.552Z,51.20
2018-03-03T16:25:11.503Z,53.30
2018-03-03T16:27:39.401Z,50.27
2018-03-03T16:30:07.299Z,49.43
2018-03-03T16:32:35.336Z,51.83
2018-03-03T16:35:03.387Z,50.77
2018-03-03T16:37:31.349Z,51.53
2018-03-03T16:39:59.231Z,53.60
2018-03-03T16:42:27.122Z,51.93
2018-03-03T16:44:55.024Z,51.60
2018-03-03T16:47:22.895Z,52.27
2018-03-03T16:49:50.858Z,52.70
2018-03-03T16:52:18.947Z,52.70
2018-03-03T16:54:48.590Z,52.37
2018-03-03T16:57:16.515Z,51.37
2018-03-03T16:59:44.413Z,52.47
2018-03-03T17:02:12.464Z,51.97
2018-03-03T17:04:40.347Z,51.37
2018-03-03T17:07:08.223Z,52.87
2018-03-03T17:09:36.127Z,52.37
2018-03-03T17:12:04.003Z,51.27
2018-03-03T17:14:31.727Z,51.30
2018-03-03T17:16:59.606Z,52.07
2018-03-03T17:19:27.502Z,52.93
2018-03-03T17:21:55.383Z,52.77
2018-03-03T17:24:23.282Z,51.23
2018-03-03T17:26:50.839Z,51.77
2018-03-03T17:29:18.741Z,54.40
2018-03-03T17:31:46.632Z,53.60
2018-03-03T17:34:14.511Z,55.37
2018-03-03T17:36:42.411Z,54.83
2018-03-03T17:39:10.286Z,57.20
2018-03-03T17:41:38.187Z,56.80
2018-03-03T17:44:06.065Z,57.60
2018-03-03T17:46:33.963Z,57.07
2018-03-03T17:49:01.873Z,61.43
2018-03-03T17:51:29.767Z,61.23
2018-03-03T17:53:57.656Z,58.27
2018-03-03T17:56:25.559Z,62.10
2018-03-03T17:58:53.491Z,64.60
2018-03-03T18:01:21.552Z,64.97
2018-03-03T18:03:49.428Z,61.90
2018-03-03T18:06:16.997Z,59.00
2018-03-03T18:08:44.886Z,59.50
2018-03-03T18:11:14.391Z,56.80
2018-03-03T18:13:42.273Z,57.93
2018-03-03T18:16:10.170Z,58.73
2018-03-03T18:18:38.067Z,57.33
2018-03-03T18:21:05.987Z,59.00
2018-03-03T18:23:33.879Z,62.60
2018-03-03T18:26:01.779Z,58.23
2018-03-03T18:28:29.677Z,61.23
2018-03-03T18:30:57.582Z,58.43
2018-03-03T18:33:25.463Z,60.77
2018-03-03T18:35:53.385Z,72.23
2018-03-03T18:38:21.271Z,77.73
2018-03-03T18:40:49.158Z,67.80
2018-03-03T18:43:17.054Z,68.67
2018-03-03T18:45:44.938Z,71.37
2018-03-03T18:48:12.844Z,72.63
2018-03-03T18:50:40.727Z,73.53
2018-03-03T18:53:08.634Z,68.27
2018-03-03T18:55:36.723Z,65.27
2018-03-03T18:58:04.631Z,61.37
2018-03-03T19:00:32.519Z,59.07
2018-03-03T19:03:00.432Z,59.90
2018-03-03T19:05:28.543Z,60.30
2018-03-03T19:07:56.443Z,58.70
2018-03-03T19:10:24.342Z,59.00
2018-03-03T19:12:52.251Z,59.40
2018-03-03T19:15:20.140Z,55.33
2018-03-03T19:17:48.040Z,59.80
2018-03-03T19:20:15.919Z,58.50
2018-03-03T19:22:43.827Z,57.90
2018-03-03T19:25:11.815Z,59.70
2018-03-03T19:27:39.703Z,58.20
2018-03-03T19:30:07.583Z,57.30
2018-03-03T19:32:35.487Z,58.10
2018-03-03T19:35:03.371Z,58.33
2018-03-03T19:37:31.251Z,59.17
2018-03-03T19:39:59.168Z,59.27
2018-03-03T19:42:27.034Z,58.23
2018-03-03T19:44:54.939Z,60.73
2018-03-03T19:47:22.861Z,63.13
2018-03-03T19:49:50.767Z,60.90
2018-03-03T19:52:18.652Z,62.50
2018-03-03T19:54:46.555Z,61.37
2018-03-03T19:57:14.439Z,65.27
2018-03-03T19:59:42.331Z,61.27
2018-03-03T20:02:09.971Z,61.77
2018-03-03T20:04:37.843Z,59.97
2018-03-03T20:07:05.778Z,63.33
2018-03-03T20:09:33.647Z,61.37
2018-03-03T20:12:01.548Z,60.57
2018-03-03T20:14:29.457Z,60.60
2018-03-03T20:16:57.321Z,62.00
2018-03-03T20:19:25.222Z,62.80
2018-03-03T20:21:53.457Z,62.53
2018-03-03T20:24:21.358Z,62.83
2018-03-03T20:26:49.268Z,63.67
2018-03-03T20:29:17.177Z,61.60
2018-03-03T20:31:45.060Z,62.50
2018-03-03T20:34:12.958Z,62.93
2018-03-03T20:36:40.843Z,62.60
2018-03-03T20:39:09.380Z,61.73
2018-03-03T20:41:37.934Z,62.60
2018-03-03T20:44:05.815Z,57.73
2018-03-03T20:46:33.711Z,63.17
2018-03-03T20:49:01.608Z,60.63
2018-03-03T20:51:29.555Z,57.87
2018-03-03T20:53:57.244Z,58.50
2018-03-03T20:56:25.185Z,54.97
2018-03-03T20:58:53.221Z,58.17
2018-03-03T21:01:21.115Z,54.20
2018-03-03T21:03:48.990Z,55.80
2018-03-03T21:06:16.871Z,54.20
2018-03-03T21:08:44.886Z,56.47
2018-03-03T21:11:17.253Z,54.97
2018-03-03T21:13:45.111Z,53.83
2018-03-03T21:16:12.990Z,54.90
2018-03-03T21:18:40.885Z,53.37
2018-03-03T21:21:08.755Z,54.57
2018-03-03T21:23:36.793Z,53.30
2018-03-03T21:26:04.663Z,54.97
2018-03-03T21:28:32.668Z,57.13
2018-03-03T21:31:00.571Z,58.87
2018-03-03T21:33:28.444Z,56.23
2018-03-03T21:35:56.439Z,56.87
2018-03-03T21:38:24.303Z,57.20
2018-03-03T21:40:52.253Z,55.50
2018-03-03T21:43:19.942Z,55.53
2018-03-03T21:45:48.667Z,56.40
2018-03-03T21:48:16.531Z,56.43
2018-03-03T21:50:44.435Z,55.37
2018-03-03T21:53:12.303Z,56.33
2018-03-03T21:55:40.290Z,55.83
2018-03-03T21:58:08.163Z,57.00
2018-03-03T22:00:36.059Z,55.87
2018-03-03T22:03:03.750Z,57.90
2018-03-03T22:05:31.653Z,58.47
2018-03-03T22:07:59.531Z,56.73
2018-03-03T22:10:27.427Z,56.77
2018-03-03T22:12:55.311Z,59.73
2018-03-03T22:15:23.429Z,57.67
2018-03-03T22:17:51.106Z,58.30
2018-03-03T22:20:19.061Z,59.47
2018-03-03T22:22:46.931Z,57.53
2018-03-03T22:25:14.832Z,58.97
2018-03-03T22:27:42.719Z,58.50
2018-03-03T22:30:11.312Z,59.30
2018-03-03T22:32:39.199Z,57.93
2018-03-03T22:35:07.106Z,58.03
2018-03-03T22:37:34.987Z,57.67
2018-03-03T22:40:02.891Z,58.73
2018-03-03T22:42:30.774Z,57.53
2018-03-03T22:44:58.668Z,56.70
2018-03-03T22:47:26.546Z,56.50
2018-03-03T22:49:54.467Z,57.47
2018-03-03T22:52:22.355Z,58.83
2018-03-03T22:54:50.251Z,55.27
2018-03-03T22:57:18.187Z,56.37
2018-03-03T22:59:46.239Z,58.70
2018-03-03T23:02:14.141Z,58.33
2018-03-03T23:04:42.022Z,55.60
2018-03-03T23:07:09.918Z,56.47
2018-03-03T23:09:37.807Z,57.73
2018-03-03T23:12:05.706Z,56.90
2018-03-03T23:14:33.593Z,56.80
2018-03-03T23:17:01.843Z,58.03
2018-03-03T23:19:29.731Z,57.43
2018-03-03T23:21:57.615Z,57.10
2018-03-03T23:24:25.544Z,60.07
2018-03-03T23:26:53.604Z,58.53
2018-03-03T23:29:21.507Z,58.63
2018-03-03T23:31:49.393Z,60.27
2018-03-03T23:34:17.295Z,60.03
2018-03-03T23:36:45.187Z,60.03
2018-03-03T23:39:13.086Z,61.27
2018-03-03T23:41:40.971Z,60.70
2018-03-03T23:44:08.877Z,60.93
2018-03-03T23:46:36.751Z,64.03
2018-03-03T23:49:04.315Z,62.80
2018-03-03T23:51:32.210Z,65.77
2018-03-03T23:54:00.115Z,66.37
2018-03-03T23:56:27.811Z,63.17
2018-03-03T23:58:55.710Z,65.20
